createdAt,value
2022-12-27T00:00:53.020Z,24.80
2022-12-27T00:03:57.006Z,25.10
2022-12-27T00:06:59.373Z,24.63
2022-12-27T00:10:02.216Z,22.80
2022-12-27T00:13:04.719Z,20.60
2022-12-27T00:16:10.027Z,23.33
2022-12-27T00:19:12.472Z,22.70
2022-12-27T00:22:14.811Z,21.50
2022-12-27T00:25:16.936Z,22.77
2022-12-27T00:28:19.035Z,22.63
2022-12-27T00:31:22.740Z,24.60
2022-12-27T00:34:24.996Z,22.13
2022-12-27T00:37:27.129Z,21.20
2022-12-27T00:40:29.323Z,24.17
2022-12-27T00:43:31.744Z,22.73
2022-12-27T00:46:34.208Z,24.87
2022-12-27T00:49:42.044Z,49.63
2022-12-27T00:52:44.241Z,35.30
2022-12-27T00:55:47.826Z,32.90
2022-12-27T00:58:54.327Z,34.60
2022-12-27T01:01:56.585Z,33.97
2022-12-27T01:04:59.777Z,33.83
2022-12-27T01:08:02.217Z,29.37
2022-12-27T01:11:05.683Z,30.93
2022-12-27T01:14:08.054Z,44.30
2022-12-27T01:17:10.137Z,42.17
2022-12-27T01:20:12.307Z,40.50
2022-12-27T01:23:14.430Z,30.87
2022-12-27T01:26:25.932Z,36.03
2022-12-27T01:29:28.038Z,35.77
2022-12-27T01:32:32.492Z,33.60
2022-12-27T01:35:34.827Z,36.20
2022-12-27T01:38:37.015Z,62.30
2022-12-27T01:42:03.293Z,42.07
2022-12-27T01:45:20.146Z,28.97
2022-12-27T01:48:25.055Z,29.53
2022-12-27T01:51:29.752Z,25.97
2022-12-27T01:57:34.513Z,29.73
2022-12-27T02:00:36.855Z,28.73
2022-12-27T02:04:10.767Z,27.90
2022-12-27T02:07:13.231Z,24.50
2022-12-27T02:10:16.342Z,21.47
2022-12-27T02:13:21.063Z,22.90
2022-12-27T02:16:23.311Z,23.30
2022-12-27T02:19:33.468Z,28.57
2022-12-27T02:23:36.076Z,28.97
2022-12-27T02:27:07.015Z,28.13
2022-12-27T02:30:13.104Z,30.37
2022-12-27T02:33:21.736Z,21.97
2022-12-27T02:36:29.749Z,26.97
2022-12-27T02:39:36.103Z,23.27
2022-12-27T02:42:59.513Z,26.37
2022-12-27T02:46:30.916Z,30.27
2022-12-27T02:49:56.799Z,24.40
2022-12-27T02:53:11.440Z,28.93
2022-12-27T02:56:41.645Z,25.58
2022-12-27T03:00:29.361Z,24.30
2022-12-27T03:03:44.002Z,25.97
2022-12-27T03:10:28.187Z,23.40
2022-12-27T03:14:09.302Z,43.33
2022-12-27T03:17:32.515Z,21.37
2022-12-27T03:20:55.834Z,33.27
2022-12-27T03:24:21.822Z,20.17
2022-12-27T03:27:30.522Z,19.33
2022-12-27T03:30:51.131Z,20.70
2022-12-27T03:34:04.653Z,19.93
2022-12-27T03:37:50.560Z,21.03
2022-12-27T03:41:23.009Z,16.80
2022-12-27T03:44:27.578Z,19.43
2022-12-27T03:47:43.757Z,31.90
2022-12-27T03:51:05.108Z,17.97
2022-12-27T03:54:13.029Z,18.20
2022-12-27T03:57:19.860Z,17.23
2022-12-27T04:00:23.615Z,17.10
2022-12-27T04:03:25.949Z,18.87
2022-12-27T04:06:28.291Z,18.23
2022-12-27T04:09:49.103Z,16.70
2022-12-27T04:13:09.825Z,18.07
2022-12-27T04:16:30.498Z,18.90
2022-12-27T04:19:51.441Z,19.27
2022-12-27T04:23:12.320Z,21.43
2022-12-27T04:26:33.085Z,20.77
2022-12-27T04:29:53.819Z,18.67
2022-12-27T04:33:14.448Z,21.27
2022-12-27T04:36:16.661Z,22.07
2022-12-27T04:39:19.113Z,19.37
2022-12-27T04:42:39.826Z,17.03
2022-12-27T04:46:00.715Z,16.07
2022-12-27T04:49:21.359Z,24.63
2022-12-27T04:52:43.076Z,17.47
2022-12-27T04:55:45.362Z,21.80
2022-12-27T04:59:05.774Z,21.63
2022-12-27T05:02:08.250Z,20.97
2022-12-27T05:05:11.965Z,20.73
2022-12-27T05:08:34.212Z,21.20
2022-12-27T05:11:55.053Z,19.00
2022-12-27T05:14:57.312Z,23.27
2022-12-27T05:17:59.371Z,22.43
2022-12-27T05:21:06.524Z,22.30
2022-12-27T05:24:26.842Z,20.53
2022-12-27T05:27:30.100Z,22.03
2022-12-27T05:30:37.168Z,27.83
2022-12-27T05:33:39.446Z,23.90
2022-12-27T05:36:42.106Z,24.53
2022-12-27T05:39:44.217Z,23.87
2022-12-27T05:42:46.422Z,24.93
2022-12-27T05:45:48.859Z,26.33
2022-12-27T05:48:51.142Z,25.70
2022-12-27T05:51:55.625Z,28.70
2022-12-27T05:54:57.865Z,28.33
2022-12-27T05:58:02.028Z,31.33
2022-12-27T06:01:09.621Z,41.97
2022-12-27T06:04:12.773Z,40.47
2022-12-27T06:07:16.148Z,39.33
2022-12-27T06:10:18.249Z,44.87
2022-12-27T06:13:20.360Z,41.87
2022-12-27T06:16:22.884Z,41.50
2022-12-27T06:19:25.067Z,34.80
2022-12-27T06:22:27.549Z,27.97
2022-12-27T06:25:30.944Z,24.40
2022-12-27T06:28:33.873Z,24.17
2022-12-27T06:31:39.427Z,26.73
2022-12-27T06:34:41.651Z,24.27
2022-12-27T06:37:44.967Z,20.43
2022-12-27T06:40:50.102Z,21.70
2022-12-27T06:43:57.452Z,22.50
2022-12-27T06:46:59.739Z,22.27
2022-12-27T06:50:03.884Z,21.80
2022-12-27T06:53:06.179Z,22.53
2022-12-27T06:56:19.377Z,23.97
2022-12-27T06:59:21.460Z,22.57
2022-12-27T07:02:27.278Z,23.13
2022-12-27T07:05:29.874Z,21.17
2022-12-27T07:08:32.909Z,21.53
2022-12-27T07:11:38.182Z,21.10
2022-12-27T07:14:40.507Z,20.57
2022-12-27T07:17:43.041Z,20.63
2022-12-27T07:20:45.328Z,21.60
2022-12-27T07:23:48.059Z,20.27
2022-12-27T07:26:50.338Z,22.60
2022-12-27T07:29:53.133Z,22.67
2022-12-27T07:32:55.456Z,22.67
2022-12-27T07:36:02.282Z,21.70
2022-12-27T07:39:05.571Z,27.03
2022-12-27T07:42:08.778Z,29.57
2022-12-27T07:45:11.521Z,30.50
2022-12-27T07:48:16.319Z,33.50
2022-12-27T07:51:18.529Z,28.87
2022-12-27T07:54:21.848Z,33.17
2022-12-27T07:57:24.042Z,31.67
2022-12-27T08:00:28.306Z,33.97
2022-12-27T08:03:33.996Z,30.48
2022-12-27T08:06:36.230Z,36.77
2022-12-27T08:09:41.777Z,36.53
2022-12-27T08:12:44.141Z,31.43
2022-12-27T08:15:53.071Z,28.47
2022-12-27T08:18:56.358Z,23.63
2022-12-27T08:21:58.585Z,28.40
2022-12-27T08:25:00.717Z,29.37
2022-12-27T08:28:04.790Z,24.20
2022-12-27T08:31:08.422Z,20.83
2022-12-27T08:34:11.881Z,19.60
2022-12-27T08:37:14.199Z,17.33
2022-12-27T08:40:16.641Z,16.53
2022-12-27T08:43:21.002Z,17.20
2022-12-27T08:46:23.513Z,17.37
2022-12-27T08:49:25.681Z,19.27
2022-12-27T08:52:28.253Z,17.00
2022-12-27T08:55:30.716Z,17.63
2022-12-27T08:58:33.011Z,15.53
2022-12-27T09:01:35.220Z,18.27
2022-12-27T09:04:37.523Z,18.97
2022-12-27T09:07:40.457Z,19.10
2022-12-27T09:10:42.538Z,19.33
2022-12-27T09:13:45.588Z,20.23
2022-12-27T09:16:47.815Z,20.00
2022-12-27T09:19:50.198Z,18.10
2022-12-27T09:22:55.295Z,17.07
2022-12-27T09:25:57.442Z,18.03
2022-12-27T09:29:00.124Z,15.57
2022-12-27T09:32:02.918Z,13.60
2022-12-27T09:35:06.435Z,14.37
2022-12-27T09:38:08.711Z,16.30
2022-12-27T09:41:37.684Z,14.33
2022-12-27T09:45:00.727Z,14.80
2022-12-27T09:48:13.877Z,18.43
2022-12-27T09:51:29.858Z,20.13
2022-12-27T09:54:50.297Z,22.70
2022-12-27T09:58:03.603Z,24.13
2022-12-27T10:01:34.919Z,25.63
2022-12-27T10:05:18.078Z,24.63
2022-12-27T10:08:14.810Z,25.00
2022-12-27T10:11:39.158Z,25.45
2022-12-27T10:15:05.957Z,26.25
2022-12-27T10:18:28.965Z,23.80
2022-12-27T10:21:36.275Z,21.92
2022-12-27T10:24:50.651Z,25.27
2022-12-27T10:28:00.901Z,23.50
2022-12-27T10:31:05.758Z,22.50
2022-12-27T10:34:12.077Z,23.77
2022-12-27T10:37:16.463Z,23.00
2022-12-27T10:40:27.685Z,23.13
2022-12-27T10:43:38.809Z,23.45
2022-12-27T10:46:44.778Z,20.85
2022-12-27T10:50:07.149Z,22.65
2022-12-27T10:53:30.201Z,20.75
2022-12-27T10:56:39.894Z,18.85
2022-12-27T10:59:42.119Z,19.70
2022-12-27T11:02:59.852Z,22.02
2022-12-27T11:06:24.055Z,22.55
2022-12-27T11:09:49.889Z,22.83
2022-12-27T11:13:05.854Z,23.42
2022-12-27T11:16:29.189Z,23.25
2022-12-27T11:19:31.535Z,24.15
2022-12-27T11:22:33.713Z,27.30
2022-12-27T11:25:45.344Z,23.67
2022-12-27T11:28:54.957Z,25.90
2022-12-27T11:32:06.323Z,25.92
2022-12-27T11:35:20.875Z,21.33
2022-12-27T11:38:31.869Z,25.02
2022-12-27T11:41:43.076Z,23.95
2022-12-27T11:45:11.593Z,24.75
2022-12-27T11:48:33.469Z,24.73
2022-12-27T11:51:57.077Z,24.05
2022-12-27T11:55:43.741Z,23.70
2022-12-27T11:58:59.742Z,17.35
2022-12-27T12:02:21.936Z,16.73
2022-12-27T12:05:53.349Z,12.95
2022-12-27T12:09:20.555Z,17.20
2022-12-27T12:13:01.574Z,16.55
2022-12-27T12:16:39.596Z,14.75
2022-12-27T12:19:52.544Z,12.80
2022-12-27T12:23:00.889Z,12.35
2022-12-27T12:26:12.107Z,11.02
2022-12-27T12:29:19.303Z,15.45
2022-12-27T12:32:36.728Z,14.02
2022-12-27T12:36:01.206Z,16.60
2022-12-27T12:39:21.836Z,16.38
2022-12-27T12:42:48.945Z,19.85
2022-12-27T12:46:22.051Z,21.10
2022-12-27T12:49:48.626Z,19.73
2022-12-27T12:53:19.097Z,20.33
2022-12-27T12:56:59.289Z,19.15
2022-12-27T13:00:16.864Z,19.42
2022-12-27T13:03:38.002Z,22.73
2022-12-27T13:07:05.461Z,18.42
2022-12-27T13:10:21.003Z,20.40
2022-12-27T13:13:42.178Z,18.90
2022-12-27T13:17:04.683Z,21.38
2022-12-27T13:20:22.565Z,23.38
2022-12-27T13:23:49.448Z,20.17
2022-12-27T13:27:09.483Z,22.80
2022-12-27T13:30:21.864Z,24.13
2022-12-27T13:33:51.780Z,25.38
2022-12-27T13:37:18.048Z,25.67
2022-12-27T13:40:23.353Z,27.45
2022-12-27T13:43:41.073Z,29.13
2022-12-27T13:47:24.017Z,24.75
2022-12-27T13:50:41.153Z,26.65
2022-12-27T13:54:02.131Z,26.80
2022-12-27T13:57:47.813Z,26.90
2022-12-27T14:00:56.323Z,28.40
2022-12-27T14:04:16.552Z,28.02
2022-12-27T14:07:28.135Z,28.63
2022-12-27T14:10:44.211Z,28.45
2022-12-27T14:13:47.106Z,29.50
2022-12-27T14:17:17.476Z,28.65
2022-12-27T14:20:34.648Z,25.52
2022-12-27T14:23:42.729Z,24.85
2022-12-27T14:27:22.443Z,23.08
2022-12-27T14:30:27.957Z,25.15
2022-12-27T14:34:01.205Z,22.75
2022-12-27T14:40:48.760Z,23.17
2022-12-27T14:44:18.255Z,21.67
2022-12-27T14:48:09.534Z,20.95
2022-12-27T14:51:59.490Z,20.95
2022-12-27T14:55:16.260Z,19.98
2022-12-27T14:58:49.671Z,20.27
2022-12-27T15:02:33.304Z,18.60
2022-12-27T15:05:57.138Z,21.40
2022-12-27T15:09:14.161Z,20.35
2022-12-27T15:12:19.326Z,17.80
2022-12-27T15:15:53.700Z,18.13
2022-12-27T15:19:16.069Z,21.17
2022-12-27T15:22:38.356Z,19.73
2022-12-27T15:25:43.500Z,19.02
2022-12-27T15:29:14.569Z,17.90
2022-12-27T15:32:16.759Z,19.92
2022-12-27T15:35:58.253Z,17.77
2022-12-27T15:39:00.540Z,17.98
2022-12-27T15:42:36.317Z,18.13
2022-12-27T15:46:28.612Z,21.38
2022-12-27T15:50:08.477Z,19.77
2022-12-27T15:53:22.467Z,20.90
2022-12-27T15:56:33.371Z,19.17
2022-12-27T15:59:51.308Z,20.38
2022-12-27T16:02:57.114Z,20.27
2022-12-27T16:06:01.243Z,20.52
2022-12-27T16:09:25.499Z,21.10
2022-12-27T16:12:39.641Z,20.10
2022-12-27T16:15:48.029Z,22.70
2022-12-27T16:18:50.743Z,19.98
2022-12-27T16:21:52.924Z,20.52
2022-12-27T16:24:56.113Z,21.60
2022-12-27T16:28:16.864Z,19.10
2022-12-27T16:31:24.711Z,22.00
2022-12-27T16:34:31.638Z,21.52
2022-12-27T16:37:45.738Z,21.40
2022-12-27T16:40:52.328Z,22.65
2022-12-27T16:44:00.237Z,19.23
2022-12-27T16:47:26.744Z,17.48
2022-12-27T16:50:40.522Z,19.23
2022-12-27T16:54:04.776Z,17.25
2022-12-27T16:57:41.044Z,19.45
2022-12-27T17:00:45.818Z,19.17
2022-12-27T17:03:49.695Z,20.10
2022-12-27T17:06:57.084Z,20.27
2022-12-27T17:10:25.021Z,22.13
2022-12-27T17:13:51.607Z,20.38
2022-12-27T17:17:09.343Z,21.95
2022-12-27T17:20:18.236Z,23.30
2022-12-27T17:23:24.004Z,22.77
2022-12-27T17:26:44.596Z,20.35
2022-12-27T17:29:55.376Z,24.38
2022-12-27T17:33:10.850Z,21.23
2022-12-27T17:36:33.189Z,19.20
2022-12-27T17:39:58.536Z,22.02
2022-12-27T17:43:38.319Z,22.45
2022-12-27T17:47:13.384Z,22.20
2022-12-27T17:50:25.674Z,22.35
2022-12-27T17:53:49.009Z,24.13
2022-12-27T17:57:19.750Z,26.58
2022-12-27T18:00:29.244Z,26.80
2022-12-27T18:03:45.203Z,26.50
2022-12-27T18:06:56.321Z,25.53
2022-12-27T18:10:04.237Z,26.87
2022-12-27T18:13:08.154Z,24.13
2022-12-27T18:16:19.632Z,24.47
2022-12-27T18:19:22.091Z,23.43
2022-12-27T18:22:24.447Z,24.97
2022-12-27T18:25:27.615Z,24.47
2022-12-27T18:28:34.949Z,23.52
2022-12-27T18:31:48.840Z,33.70
2022-12-27T18:34:59.360Z,27.02
2022-12-27T18:38:06.671Z,22.80
2022-12-27T18:41:20.268Z,23.30
2022-12-27T18:44:31.867Z,23.87
2022-12-27T18:47:45.500Z,22.83
2022-12-27T18:50:53.022Z,23.67
2022-12-27T18:53:55.128Z,22.67
2022-12-27T18:57:00.564Z,21.27
2022-12-27T19:00:26.776Z,21.17
2022-12-27T19:03:33.843Z,23.13
2022-12-27T19:06:38.902Z,22.57
2022-12-27T19:09:49.734Z,25.27
2022-12-27T19:12:52.582Z,24.70
2022-12-27T19:15:57.847Z,22.37
2022-12-27T19:19:10.450Z,21.90
2022-12-27T19:22:34.320Z,25.00
2022-12-27T19:25:39.664Z,23.87
2022-12-27T19:28:57.412Z,23.53
2022-12-27T19:32:10.161Z,23.33
2022-12-27T19:35:14.190Z,19.90
2022-12-27T19:38:23.390Z,17.83
2022-12-27T19:41:26.305Z,17.03
2022-12-27T19:44:28.750Z,13.97
2022-12-27T19:47:32.388Z,18.30
2022-12-27T19:50:35.552Z,16.45
2022-12-27T19:53:39.797Z,21.13
2022-12-27T19:56:41.900Z,19.77
2022-12-27T19:59:44.265Z,19.53
2022-12-27T20:02:46.811Z,17.33
2022-12-27T20:06:11.796Z,18.73
2022-12-27T20:09:17.617Z,19.77
2022-12-27T20:12:20.155Z,15.67
2022-12-27T20:15:22.346Z,14.40
2022-12-27T20:18:25.278Z,14.87
2022-12-27T20:21:28.920Z,15.25
2022-12-27T20:24:33.060Z,16.27
2022-12-27T20:27:35.469Z,14.93
2022-12-27T20:30:39.800Z,26.80
2022-12-27T20:33:42.315Z,18.05
2022-12-27T20:36:44.854Z,17.50
2022-12-27T20:39:46.935Z,12.67
2022-12-27T20:42:49.726Z,13.07
2022-12-27T20:45:52.222Z,13.33
2022-12-27T20:48:55.941Z,14.13
2022-12-27T20:51:57.964Z,14.87
2022-12-27T20:55:00.276Z,15.53
2022-12-27T20:58:02.411Z,13.93
2022-12-27T21:01:12.976Z,15.17
2022-12-27T21:04:15.345Z,16.40
2022-12-27T21:07:17.790Z,13.90
2022-12-27T21:10:20.206Z,14.20
2022-12-27T21:13:23.287Z,13.80
2022-12-27T21:16:27.723Z,15.07
2022-12-27T21:19:30.380Z,20.25
2022-12-27T21:22:32.619Z,19.13
2022-12-27T21:25:37.928Z,20.73
2022-12-27T21:28:40.244Z,18.17
2022-12-27T21:31:44.341Z,19.53
2022-12-27T21:34:46.531Z,19.70
2022-12-27T21:37:48.606Z,20.17
2022-12-27T21:40:58.915Z,16.57
2022-12-27T21:44:01.878Z,15.47
2022-12-27T21:47:04.143Z,14.73
2022-12-27T21:50:06.665Z,13.57
2022-12-27T21:53:09.026Z,11.30
2022-12-27T21:56:13.013Z,12.07
2022-12-27T21:59:15.145Z,12.77
2022-12-27T22:02:18.792Z,14.27
2022-12-27T22:05:21.145Z,12.90
2022-12-27T22:08:23.307Z,14.13
2022-12-27T22:11:32.438Z,12.50
2022-12-27T22:14:37.000Z,12.88
2022-12-27T22:17:39.579Z,16.10
2022-12-27T22:20:46.711Z,14.83
2022-12-27T22:23:51.572Z,15.13
2022-12-27T22:26:55.102Z,13.73
2022-12-27T22:29:58.716Z,13.57
2022-12-27T22:33:00.904Z,13.30
2022-12-27T22:36:08.088Z,13.57
2022-12-27T22:39:10.893Z,14.20
2022-12-27T22:42:13.304Z,22.70
2022-12-27T22:45:18.180Z,14.47
2022-12-27T22:48:20.384Z,16.53
2022-12-27T22:51:25.243Z,13.90
2022-12-27T22:55:05.252Z,13.43
2022-12-27T22:57:51.903Z,13.90
2022-12-27T23:00:54.130Z,14.77
2022-12-27T23:03:57.642Z,13.23
2022-12-27T23:07:02.138Z,15.70
2022-12-27T23:10:04.650Z,14.10
2022-12-27T23:13:06.967Z,16.47
2022-12-27T23:16:09.549Z,17.20
2022-12-27T23:19:13.229Z,14.73
2022-12-27T23:22:15.385Z,15.13
2022-12-27T23:25:17.750Z,15.47
2022-12-27T23:28:20.154Z,14.30
2022-12-27T23:31:23.960Z,17.63
2022-12-27T23:34:29.260Z,17.20
2022-12-27T23:37:31.851Z,16.10
2022-12-27T23:40:34.260Z,16.40
2022-12-27T23:43:55.802Z,16.87
2022-12-27T23:46:58.291Z,17.77
2022-12-27T23:50:00.561Z,19.43
2022-12-27T23:53:02.712Z,16.47
2022-12-27T23:56:07.443Z,19.23
2022-12-27T23:59:09.757Z,18.02
